Hamm-Lippewiesen Airport


Codes: EDLH/
Name: Hamm-Lippewiesen Airport
City: Hamm
Country: Germany
Elevation: 190 ft.

Photos at Hamm-Lippewiesen Airport


   Photos courtesy of SpottingLog. You can add your own sightings and photos by signing up for a free trial today.



No photos found.

Weather at Hamm-Lippewiesen Airport


Time (UTC)DescriptionTempratureWindCloud coverageVisibilityPressureHumidity
19-Apr-2024 03:00Moderate Rain6°C20 mph, SW100%5791m1011hPa88%
19-Apr-2024 06:00Moderate Rain6°C22 mph, SW100%10000m1010hPa91%
19-Apr-2024 09:00Moderate Rain7°C13 mph, W100%10000m1008hPa92%
19-Apr-2024 12:00Light Rain10°C16 mph, NW100%10000m1005hPa80%
19-Apr-2024 15:00Moderate Rain8°C18 mph, NW100%10000m1006hPa80%
19-Apr-2024 18:00Light Rain6°C20 mph, NW88%10000m1008hPa85%
19-Apr-2024 21:00Light Rain5°C20 mph, NW93%10000m1010hPa93%
20-Apr-2024 00:00Light Rain5°C11 mph, NW96%10000m1013hPa88%
20-Apr-2024 03:00Light Rain3°C9 mph, NW71%10000m1015hPa89%
20-Apr-2024 06:00Scattered Clouds4°C7 mph, NW50%10000m1018hPa89%
20-Apr-2024 09:00Overcast Clouds7°C7 mph, NW97%10000m1020hPa66%
20-Apr-2024 12:00Light Rain8°C9 mph, NW99%2183m1021hPa72%
20-Apr-2024 15:00Light Rain8°C9 mph, NW93%10000m1021hPa74%
20-Apr-2024 18:00Light Rain7°C7 mph, W94%10000m1021hPa77%
20-Apr-2024 21:00Light Rain3°C4 mph, NW79%10000m1023hPa95%
21-Apr-2024 00:00Broken Clouds2°C4 mph, NE64%10000m1023hPa95%
21-Apr-2024 03:00Overcast Clouds4°C7 mph, E100%10000m1024hPa94%
21-Apr-2024 06:00Overcast Clouds5°C7 mph, NE100%10000m1026hPa88%
21-Apr-2024 09:00Broken Clouds8°C9 mph, NE51%10000m1027hPa66%
21-Apr-2024 12:00Light Rain10°C11 mph, NE65%10000m1026hPa47%
21-Apr-2024 15:00Overcast Clouds10°C11 mph, NE99%10000m1026hPa49%
21-Apr-2024 18:00Overcast Clouds6°C7 mph, NE95%10000m1026hPa74%
21-Apr-2024 21:00Overcast Clouds4°C9 mph, NE100%10000m1028hPa77%
22-Apr-2024 00:00Overcast Clouds3°C4 mph, NE100%10000m1028hPa78%
22-Apr-2024 03:00Overcast Clouds2°C4 mph, NE100%10000m1027hPa82%
22-Apr-2024 06:00Overcast Clouds3°C7 mph, NE100%10000m1027hPa80%
22-Apr-2024 09:00Light Rain6°C7 mph, NE100%10000m1026hPa68%
22-Apr-2024 12:00Light Rain7°C7 mph, NE100%4541m1024hPa64%
22-Apr-2024 15:00Light Rain9°C4 mph, NE100%10000m1023hPa48%
22-Apr-2024 18:00Light Rain5°C7 mph, E98%10000m1022hPa77%
22-Apr-2024 21:00Scattered Clouds1°C7 mph, E38%10000m1023hPa86%
23-Apr-2024 00:00Scattered Clouds0°C7 mph, E49%10000m1022hPa90%
23-Apr-2024 03:00Light Snow-0°C7 mph, E41%10000m1021hPa95%
23-Apr-2024 06:00Light Snow3°C9 mph, NE71%10000m1020hPa81%
23-Apr-2024 09:00Few Clouds8°C11 mph, E24%10000m1020hPa63%
23-Apr-2024 12:00Scattered Clouds11°C9 mph, E33%10000m1018hPa54%
23-Apr-2024 15:00Overcast Clouds10°C11 mph, NE99%10000m1017hPa57%
23-Apr-2024 18:00Light Rain7°C7 mph, NE68%10000m1017hPa77%
23-Apr-2024 21:00Clear Sky3°C4 mph, NE7%10000m1017hPa80%
24-Apr-2024 00:00Clear Sky2°C2 mph, W10%10000m1017hPa84%